Time;durP1;ratioP1;P1;durP2;ratioP2;P2;SDS_P1;SDS_P2;PMS_P1;PMS_P2;Temp;Humidity;BMP_temperature;BMP_pressure;BME280_temperature;BME280_humidity;BME280_pressure;Samples;Min_cycle;Max_cycle;Signal;HPM_P1;HPM_P2
2022/04/30 00:02:13;;;;;;;2.05;1.25;;;8.30;76.60;;;;;;5053412;28;20071;-67
2022/04/30 00:04:43;;;;;;;3.80;1.55;;;8.30;76.60;;;;;;5051572;28;20041;-67
2022/04/30 00:07:12;;;;;;;1.52;1.13;;;8.30;76.70;;;;;;5054485;28;20029;-67
2022/04/30 00:09:38;;;;;;;2.05;1.17;;;8.30;76.80;;;;;;5056643;28;20049;-67
2022/04/30 00:12:04;;;;;;;2.85;1.20;;;8.20;76.80;;;;;;5053489;28;20060;-67
2022/04/30 00:14:30;;;;;;;4.13;1.10;;;8.20;76.90;;;;;;5059904;28;20032;-67
2022/04/30 00:16:56;;;;;;;1.90;0.93;;;8.20;77.00;;;;;;5056368;28;20566;-67
2022/04/30 00:19:22;;;;;;;2.00;1.23;;;8.20;77.00;;;;;;5049549;28;20057;-67
2022/04/30 00:21:49;;;;;;;2.45;1.10;;;8.20;77.10;;;;;;5047653;28;20025;-67
2022/04/30 00:24:15;;;;;;;1.85;1.10;;;8.10;77.20;;;;;;5052949;28;20111;-67
2022/04/30 00:26:41;;;;;;;1.90;1.00;;;8.10;77.30;;;;;;5047660;28;20864;-67
2022/04/30 00:29:07;;;;;;;2.55;1.15;;;8.10;77.50;;;;;;5056193;28;20031;-67
2022/04/30 00:31:34;;;;;;;3.67;1.60;;;8.00;77.50;;;;;;5047276;28;20115;-67
2022/04/30 00:34:00;;;;;;;2.47;1.27;;;7.90;77.70;;;;;;5060278;28;20029;-67
2022/04/30 00:36:26;;;;;;;2.08;1.33;;;7.90;77.90;;;;;;5059153;28;20473;-67
2022/04/30 00:38:51;;;;;;;2.45;1.15;;;7.80;78.00;;;;;;5053372;28;20056;-67
2022/04/30 00:41:18;;;;;;;1.80;1.30;;;7.80;78.10;;;;;;5057112;28;20025;-67
2022/04/30 00:44:02;;;;;;;2.10;1.27;;;7.80;78.30;;;;;;5055401;28;20546;-67
2022/04/30 00:46:28;;;;;;;2.55;1.65;;;7.80;78.30;;;;;;5050835;28;20473;-67
2022/04/30 00:48:54;;;;;;;2.65;1.52;;;7.60;78.50;;;;;;5064511;28;20027;-67
2022/04/30 00:51:22;;;;;;;2.72;1.52;;;7.60;78.70;;;;;;5056372;28;20028;-67
2022/04/30 00:53:53;;;;;;;2.72;1.30;;;7.60;79.00;;;;;;5065928;28;20459;-67
2022/04/30 00:56:32;;;;;;;2.25;1.25;;;7.60;79.20;;;;;;5056079;28;20031;-67
2022/04/30 00:59:04;;;;;;;2.42;1.25;;;7.60;79.30;;;;;;5050866;28;20025;-67
2022/04/30 01:01:34;;;;;;;3.05;1.35;;;7.50;79.30;;;;;;5056237;28;20463;-67
2022/04/30 01:04:00;;;;;;;2.80;1.67;;;7.50;79.30;;;;;;5059159;28;20377;-67
2022/04/30 01:06:52;;;;;;;3.17;1.70;;;7.50;79.40;;;;;;5059064;28;20024;-67
2022/04/30 01:09:28;;;;;;;1.77;1.40;;;7.50;79.40;;;;;;5061561;28;20025;-67
2022/04/30 01:12:08;;;;;;;2.63;2.00;;;7.50;79.60;;;;;;5053084;28;20020;-67
2022/04/30 01:14:35;;;;;;;1.75;1.38;;;7.50;79.80;;;;;;5055773;28;20075;-67
2022/04/30 01:17:05;;;;;;;3.55;1.38;;;7.40;79.70;;;;;;5053281;28;20032;-67
2022/04/30 01:19:33;;;;;;;2.55;1.48;;;7.40;79.90;;;;;;5053939;28;20091;-67
2022/04/30 01:22:02;;;;;;;2.67;1.88;;;7.40;80.00;;;;;;5050611;28;20074;-67
2022/04/30 01:24:30;;;;;;;3.67;1.80;;;7.30;80.30;;;;;;5060342;28;20055;-67
2022/04/30 01:26:59;;;;;;;3.72;1.70;;;7.30;80.50;;;;;;5054903;28;20033;-67
2022/04/30 01:29:27;;;;;;;2.33;1.65;;;7.20;80.60;;;;;;5052926;28;20023;-67
2022/04/30 01:37:24;;;;;;;1.77;1.38;;;7.10;81.00;;;;;;5057375;28;20072;-68
2022/04/30 01:39:59;;;;;;;3.65;1.80;;;7.10;81.20;;;;;;5051892;28;20021;-67
2022/04/30 01:42:29;;;;;;;2.60;1.70;;;7.10;81.20;;;;;;5060085;28;20082;-67
2022/04/30 01:44:55;;;;;;;4.50;2.53;;;7.00;81.30;;;;;;5055304;28;20025;-67
2022/04/30 01:47:23;;;;;;;5.13;2.72;;;7.00;81.60;;;;;;5064332;28;20466;-67
2022/04/30 01:49:49;;;;;;;6.03;3.28;;;7.00;81.80;;;;;;5056803;28;20551;-68
2022/04/30 01:52:15;;;;;;;4.32;2.67;;;6.90;82.10;;;;;;5055297;28;20017;-67
2022/04/30 01:54:42;;;;;;;5.07;2.35;;;6.80;82.20;;;;;;5054370;28;20256;-67
2022/04/30 01:57:08;;;;;;;3.70;2.50;;;6.80;82.40;;;;;;5050746;28;20017;-67
2022/04/30 01:59:33;;;;;;;3.25;2.47;;;6.80;82.60;;;;;;5060684;28;20070;-67
2022/04/30 02:02:00;;;;;;;3.85;2.50;;;6.70;82.60;;;;;;5050483;28;20105;-67
2022/04/30 02:04:27;;;;;;;4.25;2.92;;;6.70;82.80;;;;;;5062284;28;20541;-67
2022/04/30 02:06:54;;;;;;;3.95;2.50;;;6.70;82.90;;;;;;5063185;28;20021;-67
2022/04/30 02:09:21;;;;;;;3.88;2.67;;;6.70;83.00;;;;;;5049515;28;20621;-67
2022/04/30 02:11:47;;;;;;;4.32;2.45;;;6.70;83.10;;;;;;5056843;28;20491;-67
2022/04/30 02:14:14;;;;;;;4.13;2.95;;;6.70;83.10;;;;;;5052834;28;20033;-67
2022/04/30 02:16:42;;;;;;;3.28;2.45;;;6.70;83.20;;;;;;5052841;28;20029;-67
2022/04/30 02:19:08;;;;;;;6.03;2.60;;;6.70;83.40;;;;;;5058016;28;20504;-67
2022/04/30 02:21:35;;;;;;;3.92;2.53;;;6.60;83.40;;;;;;5055512;28;20496;-67
2022/04/30 02:24:02;;;;;;;3.22;2.20;;;6.60;83.60;;;;;;5047682;28;20025;-67
2022/04/30 02:26:27;;;;;;;4.95;3.15;;;6.60;83.60;;;;;;5059007;28;20028;-67
2022/04/30 02:28:57;;;;;;;4.38;2.80;;;6.60;84.30;;;;;;5080816;28;20020;-67
2022/04/30 02:31:25;;;;;;;4.88;2.55;;;6.60;83.90;;;;;;5055137;28;20023;-67
2022/04/30 02:33:55;;;;;;;4.63;2.75;;;6.60;83.90;;;;;;5050956;28;20060;-67
2022/04/30 02:36:27;;;;;;;6.25;3.28;;;6.60;84.00;;;;;;5051676;28;20468;-67
2022/04/30 02:38:57;;;;;;;3.58;2.63;;;6.50;84.00;;;;;;5054661;28;20036;-67
2022/04/30 02:41:23;;;;;;;4.63;2.83;;;6.50;84.20;;;;;;5054403;28;20029;-67
2022/04/30 02:43:50;;;;;;;4.75;3.10;;;6.50;84.30;;;;;;5051281;28;20041;-67
2022/04/30 02:46:17;;;;;;;4.25;2.92;;;6.40;84.50;;;;;;5049068;28;20028;-67
2022/04/30 02:48:43;;;;;;;5.45;2.95;;;6.40;84.70;;;;;;5057532;28;20016;-67
2022/04/30 02:51:10;;;;;;;3.72;2.65;;;6.40;84.90;;;;;;5061308;28;20020;-67
2022/04/30 02:53:38;;;;;;;5.57;3.75;;;6.40;85.00;;;;;;5051234;28;20551;-67
2022/04/30 02:56:09;;;;;;;5.95;3.70;;;6.40;85.00;;;;;;5047949;28;20381;-67
2022/04/30 03:01:20;;;;;;;6.10;3.13;;;6.40;85.30;;;;;;5056956;28;20483;-67
2022/04/30 03:03:47;;;;;;;5.07;3.03;;;6.40;85.40;;;;;;5058531;28;20025;-67
2022/04/30 03:06:13;;;;;;;7.28;3.60;;;6.40;85.40;;;;;;5051735;28;20095;-67
2022/04/30 03:08:39;;;;;;;6.47;3.00;;;6.30;85.50;;;;;;5054255;28;20032;-67
2022/04/30 03:11:07;;;;;;;4.38;3.00;;;6.40;85.60;;;;;;5074874;28;20085;-67
2022/04/30 03:13:34;;;;;;;5.70;3.17;;;6.30;85.60;;;;;;5053602;28;20021;-67
2022/04/30 03:21:44;;;;;;;4.55;3.28;;;6.30;86.10;;;;;;5069814;28;20502;-67
2022/04/30 03:24:10;;;;;;;4.60;3.13;;;6.30;86.20;;;;;;5055067;28;20194;-67
2022/04/30 03:26:36;;;;;;;5.95;3.40;;;6.30;86.30;;;;;;5059281;28;20472;-67
2022/04/30 03:29:03;;;;;;;4.88;3.45;;;6.30;86.40;;;;;;5056252;28;20029;-67
2022/04/30 03:31:30;;;;;;;6.65;3.65;;;6.30;86.60;;;;;;5056330;28;20027;-67
2022/04/30 03:33:56;;;;;;;4.57;3.47;;;6.30;86.70;;;;;;5053745;28;20025;-67
2022/04/30 03:36:21;;;;;;;7.13;3.80;;;6.30;86.90;;;;;;5055380;28;20028;-67
2022/04/30 03:38:47;;;;;;;5.13;3.60;;;6.20;87.00;;;;;;5054874;28;20487;-67
2022/04/30 03:41:15;;;;;;;5.82;3.53;;;6.20;87.20;;;;;;5058923;28;20029;-67
2022/04/30 03:43:40;;;;;;;6.03;3.75;;;6.20;87.30;;;;;;5054669;28;20402;-67
2022/04/30 03:46:06;;;;;;;7.03;4.15;;;6.20;87.60;;;;;;5062191;28;20028;-67
2022/04/30 03:48:32;;;;;;;5.43;3.35;;;6.20;87.80;;;;;;5056202;28;20028;-67
2022/04/30 03:50:58;;;;;;;6.43;3.83;;;6.20;87.90;;;;;;5053783;28;20380;-67
2022/04/30 03:53:24;;;;;;;8.80;4.40;;;6.20;88.00;;;;;;5055735;28;20110;-67
2022/04/30 03:55:49;;;;;;;4.55;3.20;;;6.10;88.10;;;;;;5065835;28;20056;-67
2022/04/30 03:58:15;;;;;;;5.50;3.60;;;6.10;88.40;;;;;;5047735;28;20037;-67
2022/04/30 04:00:41;;;;;;;5.72;3.72;;;6.10;88.60;;;;;;5058612;28;20028;-67
2022/04/30 04:03:06;;;;;;;6.00;3.78;;;6.10;88.70;;;;;;5050694;28;20032;-67
2022/04/30 04:05:33;;;;;;;5.22;3.65;;;6.10;88.90;;;;;;5058620;28;20029;-67
2022/04/30 04:07:59;;;;;;;7.18;3.92;;;6.10;89.10;;;;;;5047996;28;20071;-67
2022/04/30 04:10:24;;;;;;;5.57;3.47;;;6.10;89.20;;;;;;5057149;28;20468;-67
2022/04/30 04:12:50;;;;;;;6.03;3.50;;;6.10;89.20;;;;;;5053673;28;20021;-67
2022/04/30 04:18:00;;;;;;;6.43;4.00;;;6.10;89.50;;;;;;5057147;28;20059;-67
2022/04/30 04:20:25;;;;;;;7.03;3.70;;;6.00;89.60;;;;;;5056784;28;20021;-67
2022/04/30 04:22:55;;;;;;;5.75;3.65;;;6.00;89.80;;;;;;5064466;28;20481;-67
2022/04/30 04:28:06;;;;;;;6.25;3.78;;;6.00;90.00;;;;;;5059435;28;20107;-68
2022/04/30 04:30:32;;;;;;;4.97;3.55;;;6.00;90.10;;;;;;5057784;28;20029;-67
2022/04/30 04:32:58;;;;;;;6.88;3.78;;;6.00;90.20;;;;;;5054196;28;20071;-67
2022/04/30 04:35:25;;;;;;;6.20;3.72;;;6.00;90.30;;;;;;5059138;28;20029;-67
2022/04/30 04:37:51;;;;;;;5.30;3.42;;;6.00;90.40;;;;;;5052859;28;20068;-67
2022/04/30 04:40:17;;;;;;;5.25;3.92;;;6.00;90.40;;;;;;5056458;28;20029;-67
2022/04/30 04:42:44;;;;;;;4.88;3.65;;;6.00;90.40;;;;;;5058442;28;20492;-67
2022/04/30 04:45:11;;;;;;;6.18;3.00;;;6.10;90.50;;;;;;5056515;28;20064;-67
2022/04/30 04:47:41;;;;;;;5.70;3.70;;;6.10;90.50;;;;;;5053520;28;20422;-67
2022/04/30 04:50:12;;;;;;;4.10;3.00;;;6.10;90.50;;;;;;5056473;28;20066;-67
2022/04/30 04:52:38;;;;;;;7.50;3.40;;;6.10;90.60;;;;;;5056689;28;20024;-67
2022/04/30 04:55:04;;;;;;;3.90;2.97;;;6.10;90.60;;;;;;5056341;28;20032;-67
2022/04/30 04:57:29;;;;;;;4.82;3.47;;;6.10;90.60;;;;;;5055586;28;20063;-67
2022/04/30 04:59:56;;;;;;;5.10;3.58;;;6.10;90.70;;;;;;5061379;28;20460;-67
2022/04/30 05:02:22;;;;;;;5.07;3.28;;;6.10;90.70;;;;;;5056104;28;20381;-67
2022/04/30 05:04:48;;;;;;;6.07;3.50;;;6.10;90.80;;;;;;5053599;28;20024;-67
2022/04/30 05:07:13;;;;;;;5.28;3.30;;;6.20;90.80;;;;;;5053662;28;20024;-67
2022/04/30 05:09:39;;;;;;;4.82;3.15;;;6.20;90.80;;;;;;5061683;28;20388;-67
2022/04/30 05:12:06;;;;;;;5.95;3.25;;;6.20;90.80;;;;;;5056017;28;20413;-67
2022/04/30 05:14:32;;;;;;;4.55;3.22;;;6.20;90.80;;;;;;5050302;28;20021;-67
2022/04/30 05:16:59;;;;;;;5.47;3.00;;;6.20;90.90;;;;;;5061829;28;20468;-67
2022/04/30 05:19:24;;;;;;;6.75;3.50;;;6.30;90.90;;;;;;5062927;28;20083;-67
2022/04/30 05:21:50;;;;;;;5.70;3.33;;;6.30;90.90;;;;;;5054319;28;20068;-67
2022/04/30 05:24:15;;;;;;;4.45;2.90;;;6.40;90.90;;;;;;5053295;28;20028;-67
2022/04/30 05:26:41;;;;;;;4.85;3.05;;;6.40;91.00;;;;;;5053903;28;20078;-67
2022/04/30 05:29:06;;;;;;;4.25;3.20;;;6.40;91.00;;;;;;5053533;28;20020;-67
2022/04/30 05:31:32;;;;;;;5.57;3.05;;;6.40;91.00;;;;;;5053546;28;20025;-67
2022/04/30 05:33:57;;;;;;;6.35;3.78;;;6.40;91.10;;;;;;5054099;28;20040;-67
2022/04/30 05:36:23;;;;;;;4.38;3.33;;;6.50;91.10;;;;;;5053953;28;20029;-67
2022/04/30 05:38:49;;;;;;;4.72;3.30;;;6.50;91.10;;;;;;5054137;28;20025;-67
2022/04/30 05:41:14;;;;;;;4.68;3.25;;;6.50;91.10;;;;;;5053461;28;20439;-67
2022/04/30 05:43:40;;;;;;;4.32;3.33;;;6.60;91.20;;;;;;5053812;28;20033;-67
2022/04/30 05:46:06;;;;;;;4.93;3.17;;;6.60;91.20;;;;;;5053447;28;20159;-67
2022/04/30 05:48:32;;;;;;;5.15;3.80;;;6.60;91.20;;;;;;5053562;28;20033;-67
2022/04/30 05:50:58;;;;;;;4.80;3.15;;;6.70;91.30;;;;;;5069133;28;20029;-67
2022/04/30 05:53:23;;;;;;;3.78;2.55;;;6.70;91.30;;;;;;5053101;28;20100;-67
2022/04/30 05:55:49;;;;;;;4.95;3.08;;;6.80;91.30;;;;;;5052652;28;20061;-67
2022/04/30 05:58:14;;;;;;;5.22;3.40;;;6.80;91.30;;;;;;5051935;28;20112;-67
2022/04/30 06:00:40;;;;;;;6.45;3.78;;;6.80;91.40;;;;;;5051705;28;20033;-67
2022/04/30 06:03:06;;;;;;;3.88;2.95;;;6.90;91.40;;;;;;5051871;28;20017;-67
2022/04/30 06:05:31;;;;;;;4.57;3.28;;;6.90;91.40;;;;;;5047206;28;20545;-67
2022/04/30 06:07:57;;;;;;;6.20;4.35;;;7.00;91.50;;;;;;5047574;28;20531;-67
2022/04/30 06:10:23;;;;;;;4.68;3.70;;;7.00;91.50;;;;;;5049495;28;20519;-67
2022/04/30 06:12:48;;;;;;;5.63;4.10;;;7.10;91.60;;;;;;5051882;28;20066;-67
2022/04/30 06:15:14;;;;;;;8.18;4.82;;;7.10;91.60;;;;;;5068351;28;20025;-67
2022/04/30 06:17:40;;;;;;;5.50;4.22;;;7.20;91.70;;;;;;5052917;28;20041;-67
2022/04/30 06:20:06;;;;;;;6.55;4.03;;;7.20;91.80;;;;;;5050981;28;20032;-67
2022/04/30 06:22:31;;;;;;;6.13;4.25;;;7.30;91.80;;;;;;5051253;28;20039;-67
2022/04/30 06:24:57;;;;;;;7.57;3.50;;;7.40;91.90;;;;;;5051641;28;20033;-67
2022/04/30 06:27:22;;;;;;;7.03;4.28;;;7.40;91.90;;;;;;5051170;28;20020;-67
2022/04/30 06:29:51;;;;;;;10.13;4.78;;;7.50;92.00;;;;;;5051065;28;20047;-67
2022/04/30 06:32:17;;;;;;;6.85;4.90;;;7.50;92.20;;;;;;5051385;28;20017;-67
2022/04/30 06:34:42;;;;;;;6.35;4.40;;;7.60;92.30;;;;;;5052761;28;20370;-67
2022/04/30 06:37:08;;;;;;;5.85;3.80;;;7.60;92.30;;;;;;5052952;28;20070;-67
2022/04/30 06:39:34;;;;;;;5.03;3.60;;;7.70;92.30;;;;;;5052774;28;20477;-67
2022/04/30 06:41:59;;;;;;;5.10;3.90;;;7.80;92.40;;;;;;5052705;28;20083;-67
2022/04/30 06:44:25;;;;;;;6.25;4.05;;;7.80;92.40;;;;;;5052477;28;20078;-67
2022/04/30 06:46:50;;;;;;;4.80;3.63;;;7.90;92.40;;;;;;5052733;28;20075;-67
2022/04/30 06:49:16;;;;;;;7.13;5.53;;;8.00;92.50;;;;;;5052646;28;20079;-67
2022/04/30 06:51:41;;;;;;;6.45;4.20;;;8.10;92.60;;;;;;5067243;28;20091;-67
2022/04/30 06:57:11;;;;;;;6.53;4.20;;;8.20;92.60;;;;;;5050083;28;20626;-67
2022/04/30 06:59:41;;;;;;;6.60;4.45;;;8.20;92.60;;;;;;5052620;28;20477;-67
2022/04/30 07:02:18;;;;;;;7.20;4.30;;;8.30;92.60;;;;;;5051210;28;20060;-67
2022/04/30 07:04:46;;;;;;;4.70;3.85;;;8.40;92.60;;;;;;5052013;28;20031;-67
2022/04/30 07:07:13;;;;;;;5.65;3.83;;;8.40;92.60;;;;;;5051983;28;20078;-67
2022/04/30 07:09:39;;;;;;;7.82;4.50;;;8.50;92.60;;;;;;5052627;28;20021;-67
2022/04/30 07:12:06;;;;;;;7.38;5.20;;;8.60;92.60;;;;;;5051230;28;20024;-67
2022/04/30 07:14:36;;;;;;;8.25;4.65;;;8.60;92.60;;;;;;5052148;28;20078;-67
2022/04/30 07:17:09;;;;;;;5.68;4.93;;;8.70;92.60;;;;;;5052255;28;20385;-67
2022/04/30 07:19:35;;;;;;;7.00;4.82;;;8.70;92.60;;;;;;5050852;28;20128;-67
2022/04/30 07:22:02;;;;;;;7.80;5.30;;;8.80;92.70;;;;;;5052100;28;20108;-67
2022/04/30 07:24:28;;;;;;;5.82;4.57;;;8.90;92.70;;;;;;5051515;28;20335;-67
2022/04/30 07:26:53;;;;;;;5.88;4.30;;;8.90;92.60;;;;;;5052051;28;20028;-67
2022/04/30 07:29:19;;;;;;;8.13;5.10;;;9.00;92.50;;;;;;5051987;28;20025;-67
2022/04/30 07:31:45;;;;;;;7.65;4.97;;;9.10;92.40;;;;;;5051992;28;20060;-67
2022/04/30 07:34:10;;;;;;;7.32;4.75;;;9.20;92.40;;;;;;5051497;28;20374;-67
2022/04/30 07:36:37;;;;;;;5.85;4.75;;;9.20;92.40;;;;;;5051815;28;20174;-67
2022/04/30 07:39:03;;;;;;;7.50;4.63;;;9.30;92.30;;;;;;5051800;28;20552;-67
2022/04/30 07:41:29;;;;;;;8.30;5.40;;;9.40;92.30;;;;;;5051444;28;20025;-67
2022/04/30 07:43:54;;;;;;;6.55;4.35;;;9.50;92.20;;;;;;5054983;28;20499;-67
2022/04/30 07:46:22;;;;;;;8.98;5.60;;;9.60;92.20;;;;;;5055737;28;20021;-67
2022/04/30 07:48:48;;;;;;;5.90;4.65;;;9.60;92.10;;;;;;5070571;28;20447;-67
2022/04/30 07:51:14;;;;;;;13.13;6.97;;;9.70;92.00;;;;;;5055506;28;20025;-67
2022/04/30 07:53:43;;;;;;;7.40;4.88;;;9.90;91.90;;;;;;5055774;28;20051;-67
2022/04/30 07:56:10;;;;;;;5.03;4.13;;;10.00;91.80;;;;;;5055492;28;20075;-67
2022/04/30 07:58:35;;;;;;;7.13;5.05;;;10.10;91.60;;;;;;5055794;28;20029;-67
2022/04/30 08:01:01;;;;;;;5.63;4.68;;;10.20;91.40;;;;;;5055738;28;20021;-67
2022/04/30 08:03:26;;;;;;;5.18;4.32;;;10.30;91.20;;;;;;5055468;28;20028;-67
2022/04/30 08:05:52;;;;;;;6.00;4.47;;;10.50;91.00;;;;;;5055308;28;20029;-67
2022/04/30 08:08:18;;;;;;;8.73;3.88;;;10.60;90.70;;;;;;5055522;28;20029;-67
2022/04/30 08:10:45;;;;;;;4.90;4.05;;;10.80;90.50;;;;;;5055583;28;20536;-67
2022/04/30 08:13:11;;;;;;;4.72;3.72;;;10.90;90.20;;;;;;5055424;28;20043;-67
2022/04/30 08:15:42;;;;;;;4.70;3.17;;;11.10;90.00;;;;;;5070627;28;20029;-67
2022/04/30 08:18:11;;;;;;;4.63;2.90;;;11.20;89.60;;;;;;5055179;28;20045;-67
2022/04/30 08:20:38;;;;;;;10.05;4.03;;;11.30;89.30;;;;;;5055211;28;20021;-67
2022/04/30 08:23:06;;;;;;;4.57;2.75;;;11.50;88.80;;;;;;5055286;28;20104;-67
2022/04/30 08:25:32;;;;;;;3.78;2.78;;;11.60;88.20;;;;;;5054862;28;20025;-67
2022/04/30 08:27:57;;;;;;;5.25;3.20;;;11.80;87.60;;;;;;5055449;28;20388;-67
2022/04/30 08:30:23;;;;;;;3.20;2.22;;;11.90;86.90;;;;;;5055136;28;20469;-67
2022/04/30 08:32:48;;;;;;;4.05;3.20;;;12.00;86.50;;;;;;5055142;28;20044;-67
2022/04/30 08:35:14;;;;;;;4.30;2.45;;;12.20;85.90;;;;;;5054723;28;20037;-67
2022/04/30 08:37:39;;;;;;;3.97;2.75;;;12.30;85.50;;;;;;5070466;28;20021;-67
2022/04/30 08:40:06;;;;;;;3.80;2.60;;;12.40;84.80;;;;;;5054642;28;20028;-67
2022/04/30 08:42:32;;;;;;;6.65;2.95;;;12.60;84.30;;;;;;5054395;28;20032;-67
2022/04/30 08:44:58;;;;;;;4.72;2.72;;;12.70;83.40;;;;;;5054399;28;20021;-67
2022/04/30 08:47:24;;;;;;;4.70;3.28;;;12.90;82.50;;;;;;5054584;28;20502;-67
2022/04/30 08:49:51;;;;;;;4.05;2.90;;;13.00;81.50;;;;;;5054925;28;20025;-67
2022/04/30 08:52:16;;;;;;;5.35;3.20;;;13.10;80.60;;;;;;5054429;28;20032;-67
2022/04/30 08:54:43;;;;;;;4.22;3.00;;;13.20;79.00;;;;;;5053662;28;20376;-67
2022/04/30 08:57:08;;;;;;;2.55;2.10;;;13.20;78.30;;;;;;5054748;28;20448;-67
2022/04/30 08:59:34;;;;;;;2.50;2.22;;;13.30;78.30;;;;;;5053572;28;20523;-67
2022/04/30 09:02:01;;;;;;;3.88;2.85;;;13.30;78.30;;;;;;5053106;28;20503;-67
2022/04/30 09:04:48;;;;;;;4.10;2.05;;;13.40;77.80;;;;;;5054476;28;20060;-66
2022/04/30 09:07:16;;;;;;;3.35;2.35;;;13.50;77.60;;;;;;5054118;28;20124;-67
2022/04/30 09:09:42;;;;;;;4.88;2.83;;;13.50;77.10;;;;;;5054371;28;20057;-66
2022/04/30 09:12:13;;;;;;;2.97;1.92;;;13.50;76.30;;;;;;5054220;28;20052;-66
2022/04/30 09:14:40;;;;;;;2.58;1.70;;;13.60;76.40;;;;;;5054530;28;20029;-66
2022/04/30 09:17:08;;;;;;;3.35;2.42;;;13.70;76.30;;;;;;5054301;28;20056;-65
2022/04/30 09:19:44;;;;;;;3.63;2.42;;;13.80;75.60;;;;;;5054116;28;20111;-66
2022/04/30 09:22:10;;;;;;;4.15;2.80;;;13.90;74.80;;;;;;5053374;28;20108;-67
2022/04/30 09:24:50;;;;;;;3.65;2.55;;;13.80;74.00;;;;;;5052870;28;20481;-67
2022/04/30 09:27:17;;;;;;;5.03;2.72;;;13.80;73.60;;;;;;5054426;28;20032;-67
2022/04/30 09:29:43;;;;;;;3.38;2.20;;;13.80;73.60;;;;;;5052796;28;20119;-67
2022/04/30 09:32:16;;;;;;;3.47;1.73;;;13.90;73.60;;;;;;5052432;28;20052;-67
2022/04/30 09:37:43;;;;;;;3.33;2.65;;;14.10;72.60;;;;;;5051713;28;20032;-67
2022/04/30 09:40:15;;;;;;;3.80;2.45;;;14.20;72.00;;;;;;5049815;28;20519;-67
2022/04/30 09:42:42;;;;;;;6.57;2.28;;;14.30;71.60;;;;;;5053255;28;20056;-67
2022/04/30 09:45:09;;;;;;;4.72;2.55;;;14.40;71.60;;;;;;5053041;28;20060;-67
2022/04/30 09:47:35;;;;;;;4.05;2.10;;;14.50;71.10;;;;;;5052252;28;20048;-67
2022/04/30 09:55:53;;;;;;;3.38;2.42;;;14.90;68.90;;;;;;5051245;28;20075;-67
2022/04/30 09:58:27;;;;;;;2.97;1.90;;;15.10;67.90;;;;;;5050178;28;20033;-67
2022/04/30 10:00:58;;;;;;;3.03;1.80;;;15.20;67.10;;;;;;5049248;28;20075;-67
2022/04/30 10:03:29;;;;;;;2.67;2.03;;;15.20;66.80;;;;;;5051847;28;20032;-67
2022/04/30 10:06:03;;;;;;;3.50;2.42;;;15.30;66.80;;;;;;5051392;28;20358;-67
2022/04/30 10:08:35;;;;;;;3.90;2.90;;;15.40;66.30;;;;;;5051339;28;20310;-67
2022/04/30 10:11:21;;;;;;;5.63;2.67;;;15.50;65.30;;;;;;5051528;28;20469;-67
2022/04/30 10:13:57;;;;;;;3.10;2.53;;;15.50;65.20;;;;;;5052191;28;20029;-67
2022/04/30 10:16:28;;;;;;;4.50;2.13;;;15.50;65.00;;;;;;5050228;28;20025;-67
2022/04/30 10:19:16;;;;;;;3.80;2.13;;;15.60;65.10;;;;;;5048839;28;20037;-67
2022/04/30 10:21:42;;;;;;;3.65;1.95;;;15.70;65.20;;;;;;5051805;28;20057;-67
2022/04/30 10:24:12;;;;;;;4.45;2.00;;;15.70;65.00;;;;;;5052674;28;20078;-67
2022/04/30 10:26:38;;;;;;;3.40;2.05;;;15.60;65.60;;;;;;5053010;28;20021;-67
2022/04/30 10:29:11;;;;;;;3.83;1.98;;;15.70;64.90;;;;;;5051890;28;20028;-67
2022/04/30 10:31:44;;;;;;;2.53;1.70;;;15.80;64.50;;;;;;5053037;28;20056;-67
2022/04/30 10:34:11;;;;;;;3.92;2.00;;;16.00;64.20;;;;;;5053145;28;20036;-67
2022/04/30 10:36:38;;;;;;;2.33;1.65;;;16.20;63.40;;;;;;5052660;28;20064;-67
2022/04/30 10:39:09;;;;;;;5.05;2.40;;;16.50;62.30;;;;;;5052806;28;20037;-67
2022/04/30 10:41:45;;;;;;;3.20;2.53;;;16.70;60.70;;;;;;5052857;28;20021;-67
2022/04/30 10:44:13;;;;;;;5.28;3.10;;;16.90;59.80;;;;;;5052812;28;20037;-67
2022/04/30 10:46:45;;;;;;;3.22;2.20;;;17.00;59.20;;;;;;5052603;28;20025;-67
2022/04/30 10:49:11;;;;;;;4.13;2.03;;;17.10;59.40;;;;;;5052824;28;20427;-67
2022/04/30 10:51:38;;;;;;;3.45;2.10;;;17.00;59.40;;;;;;5052616;28;20476;-67
2022/04/30 10:54:09;;;;;;;3.40;2.45;;;16.90;59.10;;;;;;5052356;28;20052;-67
2022/04/30 10:56:35;;;;;;;3.47;2.40;;;16.80;59.10;;;;;;5052416;28;20045;-67
2022/04/30 10:59:00;;;;;;;5.03;1.80;;;16.70;59.20;;;;;;5052482;28;20021;-67
2022/04/30 11:01:26;;;;;;;3.97;2.00;;;16.70;59.40;;;;;;5052505;28;20029;-67
2022/04/30 11:03:51;;;;;;;3.92;1.88;;;16.60;59.10;;;;;;5051256;28;20108;-67
2022/04/30 11:06:32;;;;;;;4.47;2.92;;;16.60;59.30;;;;;;5052222;28;20025;-67
2022/04/30 11:09:05;;;;;;;3.42;2.22;;;16.50;58.00;;;;;;5051214;28;20032;-67
2022/04/30 11:11:32;;;;;;;3.75;2.35;;;16.50;58.10;;;;;;5050683;28;20063;-67
2022/04/30 11:14:07;;;;;;;3.85;2.17;;;16.40;58.50;;;;;;5051749;28;20029;-67
2022/04/30 11:16:35;;;;;;;2.60;1.85;;;16.30;58.50;;;;;;5052115;28;20037;-67
2022/04/30 11:19:10;;;;;;;2.90;1.80;;;16.30;58.60;;;;;;5051769;28;20044;-67
2022/04/30 11:21:38;;;;;;;3.25;1.83;;;16.40;58.70;;;;;;5052625;28;20052;-67
2022/04/30 11:24:04;;;;;;;4.00;2.00;;;16.40;58.70;;;;;;5051235;28;20028;-67
2022/04/30 11:26:36;;;;;;;2.60;1.80;;;16.40;58.60;;;;;;5048642;28;20032;-67
2022/04/30 11:29:05;;;;;;;4.55;2.50;;;16.40;58.30;;;;;;5050331;28;20020;-67
2022/04/30 11:31:31;;;;;;;3.67;2.22;;;16.30;57.80;;;;;;5049350;28;20381;-67
2022/04/30 11:34:13;;;;;;;3.90;2.03;;;16.30;57.90;;;;;;5047921;28;20108;-67
2022/04/30 11:36:39;;;;;;;3.13;1.67;;;16.40;57.50;;;;;;5048148;28;20026;-67
2022/04/30 11:39:06;;;;;;;2.63;1.70;;;16.40;57.60;;;;;;5050438;28;20013;-67
2022/04/30 11:41:41;;;;;;;3.58;2.25;;;16.40;57.40;;;;;;5050367;28;20270;-68
2022/04/30 11:44:09;;;;;;;4.45;2.40;;;16.40;57.10;;;;;;5050188;28;20481;-67
2022/04/30 11:46:39;;;;;;;2.88;1.98;;;16.40;57.00;;;;;;5050116;28;20021;-67
2022/04/30 11:49:09;;;;;;;2.58;1.85;;;16.40;57.20;;;;;;5050212;28;20013;-67
2022/04/30 11:51:35;;;;;;;2.83;1.70;;;16.50;57.30;;;;;;5050054;28;20024;-67
2022/04/30 11:54:07;;;;;;;3.80;1.85;;;16.60;57.30;;;;;;5050043;28;20019;-67
2022/04/30 11:56:33;;;;;;;2.33;1.67;;;16.60;56.90;;;;;;5049887;28;20087;-67
2022/04/30 11:58:58;;;;;;;4.40;2.00;;;16.60;56.80;;;;;;5050017;28;20021;-68
2022/04/30 12:01:26;;;;;;;3.33;2.17;;;16.60;56.50;;;;;;5046788;28;20029;-67
2022/04/30 12:04:00;;;;;;;3.47;2.28;;;16.50;56.50;;;;;;5050592;28;20044;-67
2022/04/30 12:06:26;;;;;;;3.53;2.20;;;16.50;56.70;;;;;;5049271;28;20043;-67
2022/04/30 12:08:52;;;;;;;2.78;1.80;;;16.40;56.70;;;;;;5049211;28;20250;-67
2022/04/30 12:11:18;;;;;;;2.50;1.83;;;16.30;56.60;;;;;;5049049;28;20017;-67
2022/04/30 12:13:43;;;;;;;3.22;1.90;;;16.30;56.60;;;;;;5048755;28;20026;-67
2022/04/30 12:16:09;;;;;;;2.97;1.92;;;16.20;56.70;;;;;;5049360;28;20024;-67
2022/04/30 12:27:03;;;;;;;3.40;1.90;;;16.00;56.80;;;;;;5048805;28;20029;-67
2022/04/30 12:29:30;;;;;;;4.13;2.20;;;15.90;56.80;;;;;;5047584;28;20029;-67
2022/04/30 12:31:56;;;;;;;3.00;2.20;;;15.80;57.10;;;;;;5050100;28;20033;-67
2022/04/30 12:34:22;;;;;;;5.25;2.28;;;15.80;57.30;;;;;;5052235;28;20546;-67
2022/04/30 12:36:57;;;;;;;4.65;2.65;;;15.80;57.40;;;;;;5053046;28;20392;-67
2022/04/30 12:39:24;;;;;;;5.28;2.58;;;15.80;57.80;;;;;;5051449;28;20025;-67
2022/04/30 12:41:51;;;;;;;2.88;2.28;;;15.70;58.20;;;;;;5059795;28;20032;-67
2022/04/30 12:44:16;;;;;;;2.53;2.05;;;15.80;58.30;;;;;;5049874;28;20047;-67
2022/04/30 12:46:46;;;;;;;2.35;1.90;;;15.90;58.20;;;;;;5052797;28;20021;-67
2022/04/30 12:49:12;;;;;;;;;;;16.00;58.10;;;;;;5052722;28;20108;-67
2022/04/30 12:51:38;;;;;;;3.83;2.00;;;16.10;58.20;;;;;;5052973;28;19967;-68
2022/04/30 12:54:05;;;;;;;3.95;2.53;;;16.20;58.10;;;;;;5052883;28;20083;-67
2022/04/30 12:56:31;;;;;;;4.68;2.33;;;16.40;57.70;;;;;;5052528;28;20017;-67
2022/04/30 12:58:57;;;;;;;3.22;2.00;;;16.50;57.20;;;;;;5052403;28;20013;-67
2022/04/30 13:01:23;;;;;;;3.90;2.42;;;16.70;57.00;;;;;;5052979;28;20075;-67
2022/04/30 13:03:48;;;;;;;3.92;2.10;;;16.80;56.50;;;;;;5054041;28;20503;-67
2022/04/30 13:06:14;;;;;;;3.20;1.80;;;17.00;56.10;;;;;;5053339;28;20025;-67
2022/04/30 13:14:09;;;;;;;2.10;1.50;;;17.90;54.50;;;;;;5037781;28;20091;-67
2022/04/30 13:16:34;;;;;;;3.25;1.60;;;18.20;53.20;;;;;;5053817;28;20021;-67
2022/04/30 13:19:00;;;;;;;2.65;1.27;;;18.40;52.80;;;;;;5053262;28;20045;-67
2022/04/30 13:21:26;;;;;;;2.95;1.77;;;18.70;52.60;;;;;;5053622;28;20027;-67
2022/04/30 13:23:51;;;;;;;2.45;1.38;;;19.00;52.50;;;;;;5052360;28;20021;-67
2022/04/30 13:26:20;;;;;;;3.13;1.88;;;19.30;51.60;;;;;;5064155;28;20492;-68
2022/04/30 13:28:46;;;;;;;2.97;1.30;;;19.50;50.80;;;;;;5062576;28;20017;-67
2022/04/30 13:31:12;;;;;;;4.68;1.55;;;19.50;50.60;;;;;;5052564;28;20083;-67
2022/04/30 13:33:38;;;;;;;2.67;1.58;;;19.50;50.70;;;;;;5051922;28;20362;-67
2022/04/30 13:36:04;;;;;;;2.13;1.23;;;19.50;50.30;;;;;;5051477;28;20028;-67
2022/04/30 13:38:31;;;;;;;3.92;1.48;;;19.60;50.10;;;;;;5053197;28;20485;-67
2022/04/30 13:40:59;;;;;;;3.58;1.75;;;19.50;50.40;;;;;;5067829;28;20025;-67